createdAt,value
2018-09-14T00:01:02.163Z,4.90
2018-09-14T00:03:07.688Z,5.20
2018-09-14T00:05:15.624Z,5.30
2018-09-14T00:07:27.271Z,5.60
2018-09-14T00:09:33.514Z,5.40
2018-09-14T00:11:40.319Z,5.03
2018-09-14T00:13:44.748Z,4.70
2018-09-14T00:15:52.449Z,4.87
2018-09-14T00:18:00.616Z,4.80
2018-09-14T00:20:05.728Z,5.33
2018-09-14T00:22:16.467Z,4.72
2018-09-14T00:24:23.768Z,4.90
2018-09-14T00:26:30.442Z,4.97
2018-09-14T00:28:37.020Z,4.67
2018-09-14T00:30:46.717Z,5.00
2018-09-14T00:32:51.267Z,4.80
2018-09-14T00:34:58.927Z,4.83
2018-09-14T00:37:05.212Z,5.33
2018-09-14T00:39:13.039Z,5.10
2018-09-14T00:41:17.718Z,4.62
2018-09-14T00:43:26.246Z,4.73
2018-09-14T00:45:33.711Z,5.10
2018-09-14T00:47:40.751Z,4.60
2018-09-14T00:49:47.350Z,4.67
2018-09-14T00:51:53.038Z,5.13
2018-09-14T00:54:00.809Z,5.35
2018-09-14T00:56:05.282Z,5.33
2018-09-14T00:58:12.602Z,5.35
2018-09-14T01:00:17.760Z,4.42
2018-09-14T01:02:25.423Z,4.80
2018-09-14T01:04:29.880Z,5.30
2018-09-14T01:06:38.034Z,5.65
2018-09-14T01:08:42.447Z,5.13
2018-09-14T01:10:51.829Z,5.60
2018-09-14T01:12:57.229Z,5.07
2018-09-14T01:15:02.483Z,4.80
2018-09-14T01:17:10.661Z,5.10
2018-09-14T01:19:17.256Z,4.70
2018-09-14T01:21:21.865Z,4.70
2018-09-14T01:23:30.254Z,4.77
2018-09-14T01:25:34.786Z,4.10
2018-09-14T01:27:41.066Z,4.60
2018-09-14T01:29:45.552Z,4.40
2018-09-14T01:31:54.002Z,4.80
2018-09-14T01:34:01.452Z,4.90
2018-09-14T01:36:11.422Z,4.80
2018-09-14T01:38:15.931Z,4.83
2018-09-14T01:40:22.934Z,4.87
2018-09-14T01:42:31.048Z,4.73
2018-09-14T01:44:39.617Z,4.05
2018-09-14T01:46:45.888Z,4.50
2018-09-14T01:48:54.223Z,4.40
2018-09-14T01:51:01.456Z,4.47
2018-09-14T01:53:06.235Z,4.47
2018-09-14T01:55:13.623Z,4.83
2018-09-14T01:57:23.260Z,4.75
2018-09-14T01:59:27.852Z,4.33
2018-09-14T02:01:34.023Z,4.83
2018-09-14T02:03:41.096Z,4.63
2018-09-14T02:05:45.703Z,4.33
2018-09-14T02:07:53.678Z,4.80
2018-09-14T02:10:00.362Z,4.47
2018-09-14T02:12:05.689Z,4.70
2018-09-14T02:14:13.996Z,4.58
2018-09-14T02:16:22.086Z,5.07
2018-09-14T02:18:26.857Z,4.70
2018-09-14T02:20:33.715Z,5.03
2018-09-14T02:22:41.310Z,5.40
2018-09-14T02:24:47.915Z,5.40
2018-09-14T02:26:55.514Z,5.23
2018-09-14T02:29:01.933Z,4.53
2018-09-14T02:31:11.565Z,5.13
2018-09-14T02:33:19.701Z,5.57
2018-09-14T02:35:27.575Z,5.43
2018-09-14T02:37:32.125Z,5.73
2018-09-14T02:41:40.034Z,5.43
2018-09-14T02:43:44.439Z,5.42
2018-09-14T02:45:49.014Z,5.37
2018-09-14T02:47:58.034Z,5.42
2018-09-14T02:50:04.859Z,5.95
2018-09-14T02:52:09.456Z,5.47
2018-09-14T02:54:13.959Z,5.37
2018-09-14T02:56:22.461Z,5.67
2018-09-14T02:58:27.082Z,5.33
2018-09-14T03:00:35.800Z,5.40
2018-09-14T03:02:43.924Z,5.35
2018-09-14T03:04:53.090Z,5.20
2018-09-14T03:06:59.106Z,5.37
2018-09-14T03:09:05.098Z,5.40
2018-09-14T03:11:13.434Z,5.80
2018-09-14T03:13:21.227Z,5.80
2018-09-14T03:15:29.756Z,5.87
2018-09-14T03:17:38.457Z,5.87
2018-09-14T03:19:43.026Z,6.03
2018-09-14T03:21:51.724Z,6.17
2018-09-14T03:23:59.011Z,5.60
2018-09-14T03:26:06.668Z,5.93
2018-09-14T03:28:14.479Z,5.77
2018-09-14T03:30:23.883Z,5.97
2018-09-14T03:32:32.601Z,7.07
2018-09-14T03:34:40.853Z,6.90
2018-09-14T03:36:46.675Z,6.23
2018-09-14T03:38:54.488Z,5.80
2018-09-14T03:41:01.853Z,5.97
2018-09-14T03:43:09.222Z,5.62
2018-09-14T03:45:15.405Z,5.37
2018-09-14T03:47:19.860Z,5.20
2018-09-14T03:49:28.357Z,6.30
2018-09-14T03:51:38.151Z,5.63
2018-09-14T03:53:43.668Z,5.47
2018-09-14T03:55:49.885Z,4.85
2018-09-14T03:57:57.243Z,5.53
2018-09-14T04:00:01.707Z,5.80
2018-09-14T04:02:10.911Z,5.87
2018-09-14T04:04:18.262Z,6.10
2018-09-14T04:06:28.222Z,6.20
2018-09-14T04:08:35.883Z,5.97
2018-09-14T04:10:42.200Z,6.30
2018-09-14T04:12:50.194Z,5.90
2018-09-14T04:14:59.046Z,5.90
2018-09-14T04:17:05.961Z,6.12
2018-09-14T04:19:13.838Z,5.60
2018-09-14T04:21:21.124Z,5.60
2018-09-14T04:23:29.221Z,5.70
2018-09-14T04:25:36.731Z,6.13
2018-09-14T04:27:43.962Z,5.70
2018-09-14T04:29:52.442Z,6.12
2018-09-14T04:32:00.377Z,5.83
2018-09-14T04:34:11.251Z,6.00
2018-09-14T04:36:21.298Z,6.13
2018-09-14T04:38:31.363Z,6.13
2018-09-14T04:40:39.693Z,5.97
2018-09-14T04:42:48.001Z,5.75
2018-09-14T04:44:52.856Z,5.97
2018-09-14T04:47:01.340Z,6.03
2018-09-14T04:49:08.975Z,5.72
2018-09-14T04:51:13.991Z,5.93
2018-09-14T04:53:18.443Z,6.00
2018-09-14T04:55:23.966Z,6.13
2018-09-14T04:57:31.751Z,6.53
2018-09-14T04:59:37.063Z,6.47
2018-09-14T05:01:44.561Z,5.97
2018-09-14T05:03:49.057Z,6.40
2018-09-14T05:05:54.944Z,5.47
2018-09-14T05:08:01.358Z,6.77
2018-09-14T05:10:06.655Z,6.30
2018-09-14T05:12:13.578Z,6.50
2018-09-14T05:14:20.090Z,7.17
2018-09-14T05:16:24.592Z,6.70
2018-09-14T05:18:32.207Z,6.70
2018-09-14T05:20:37.388Z,6.87
2018-09-14T05:22:46.067Z,6.13
2018-09-14T05:24:50.801Z,6.85
2018-09-14T05:26:55.253Z,6.85
2018-09-14T05:29:05.782Z,6.17
2018-09-14T05:31:10.326Z,6.70
2018-09-14T05:33:17.733Z,6.93
2018-09-14T05:35:22.308Z,6.72
2018-09-14T05:37:26.751Z,6.47
2018-09-14T05:39:32.375Z,6.35
2018-09-14T05:41:38.698Z,6.43
2018-09-14T05:43:46.323Z,7.05
2018-09-14T05:45:55.209Z,6.45
2018-09-14T05:47:59.800Z,6.33
2018-09-14T05:50:06.523Z,6.95
2018-09-14T05:52:14.263Z,6.58
2018-09-14T05:54:21.010Z,6.97
2018-09-14T05:56:27.137Z,7.50
2018-09-14T05:58:36.293Z,7.20
2018-09-14T06:00:44.867Z,6.93
2018-09-14T06:02:57.552Z,6.83
2018-09-14T06:05:03.202Z,6.93
2018-09-14T06:07:07.667Z,6.45
2018-09-14T06:09:18.125Z,6.95
2018-09-14T06:11:24.333Z,7.33
2018-09-14T06:13:33.017Z,6.95
2018-09-14T06:15:41.065Z,6.80
2018-09-14T06:17:47.935Z,6.53
2018-09-14T06:19:54.074Z,6.83
2018-09-14T06:21:59.254Z,6.83
2018-09-14T06:24:05.327Z,7.17
2018-09-14T06:26:15.153Z,7.27
2018-09-14T06:28:20.377Z,7.60
2018-09-14T06:30:30.800Z,7.83
2018-09-14T06:32:39.987Z,7.83
2018-09-14T06:34:45.020Z,7.87
2018-09-14T06:36:52.117Z,7.97
2018-09-14T06:38:58.997Z,7.17
2018-09-14T06:41:04.826Z,6.83
2018-09-14T06:43:14.044Z,7.40
2018-09-14T06:45:24.089Z,6.83
2018-09-14T06:47:32.617Z,7.37
2018-09-14T06:49:42.600Z,6.35
2018-09-14T06:51:48.660Z,7.23
2018-09-14T06:53:56.523Z,7.27
2018-09-14T06:56:06.840Z,7.50
2018-09-14T06:58:15.342Z,6.80
2018-09-14T07:00:24.784Z,7.53
2018-09-14T07:02:32.649Z,7.17
2018-09-14T07:04:41.277Z,7.30
2018-09-14T07:06:51.078Z,7.00
2018-09-14T07:08:58.227Z,7.37
2018-09-14T07:11:05.212Z,7.10
2018-09-14T07:13:12.968Z,6.40
2018-09-14T07:15:21.396Z,7.27
2018-09-14T07:17:28.562Z,7.00
2018-09-14T07:19:33.188Z,6.70
2018-09-14T07:21:43.044Z,6.72
2018-09-14T07:23:52.274Z,6.80
2018-09-14T07:26:00.097Z,6.28
2018-09-14T07:28:09.455Z,5.63
2018-09-14T07:30:16.582Z,5.92
2018-09-14T07:32:24.532Z,6.07
2018-09-14T07:34:31.063Z,6.42
2018-09-14T07:36:38.343Z,6.58
2018-09-14T07:38:45.661Z,6.80
2018-09-14T07:40:51.272Z,5.92
2018-09-14T07:42:56.156Z,6.60
2018-09-14T07:45:03.471Z,5.37
2018-09-14T07:47:11.042Z,5.85
2018-09-14T07:49:18.021Z,5.73
2018-09-14T07:51:27.435Z,5.90
2018-09-14T07:53:34.107Z,6.10
2018-09-14T07:55:40.107Z,5.33
2018-09-14T07:57:46.634Z,5.33
2018-09-14T07:59:53.829Z,6.60
2018-09-14T08:01:58.685Z,6.53
2018-09-14T08:04:03.820Z,6.10
2018-09-14T08:06:10.631Z,5.57
2018-09-14T08:08:15.379Z,5.80
2018-09-14T08:10:21.804Z,5.23
2018-09-14T08:12:26.459Z,6.30
2018-09-14T08:14:30.913Z,5.85
2018-09-14T08:16:38.294Z,5.58
2018-09-14T08:18:42.926Z,6.03
2018-09-14T08:20:50.907Z,6.13
2018-09-14T08:22:57.953Z,6.57
2018-09-14T08:25:06.089Z,5.97
2018-09-14T08:27:13.975Z,6.47
2018-09-14T08:29:21.978Z,6.87
2018-09-14T08:31:29.817Z,6.53
2018-09-14T08:33:36.992Z,6.70
2018-09-14T08:35:43.607Z,6.27
2018-09-14T08:37:49.763Z,6.70
2018-09-14T08:39:58.391Z,6.57
2018-09-14T08:42:03.037Z,7.20
2018-09-14T08:44:09.467Z,6.80
2018-09-14T08:46:16.591Z,6.83
2018-09-14T08:48:24.377Z,7.47
2018-09-14T08:50:28.933Z,6.67
2018-09-14T08:52:36.581Z,7.53
2018-09-14T08:54:43.685Z,6.97
2018-09-14T08:56:50.887Z,8.17
2018-09-14T08:58:57.459Z,8.00
2018-09-14T09:01:02.141Z,8.27
2018-09-14T09:03:08.604Z,8.75
2018-09-14T09:05:14.991Z,8.30
2018-09-14T09:07:19.731Z,8.80
2018-09-14T09:09:24.186Z,8.60
2018-09-14T09:11:34.139Z,10.10
2018-09-14T09:13:41.862Z,10.90
2018-09-14T09:15:51.668Z,13.05
2018-09-14T09:17:58.659Z,12.73
2018-09-14T09:20:05.015Z,12.97
2018-09-14T09:22:11.621Z,12.75
2018-09-14T09:24:17.058Z,12.77
2018-09-14T09:26:24.063Z,12.73
2018-09-14T09:28:32.425Z,12.50
2018-09-14T09:30:40.412Z,13.53
2018-09-14T09:32:48.745Z,13.07
2018-09-14T09:34:56.539Z,13.87
2018-09-14T09:37:06.523Z,13.50
2018-09-14T09:39:12.531Z,14.25
2018-09-14T09:41:24.351Z,13.53
2018-09-14T09:43:32.558Z,12.47
2018-09-14T09:45:41.278Z,13.43
2018-09-14T09:47:51.883Z,11.53
2018-09-14T09:49:58.658Z,11.93
2018-09-14T09:52:06.549Z,11.53
2018-09-14T09:54:15.225Z,10.43
2018-09-14T09:56:23.941Z,10.40
2018-09-14T09:58:33.448Z,10.07
2018-09-14T10:00:48.070Z,8.70
2018-09-14T10:02:59.306Z,9.15
2018-09-14T10:05:10.124Z,8.20
2018-09-14T10:07:20.347Z,7.85
2018-09-14T10:09:24.783Z,7.00
2018-09-14T10:11:29.461Z,6.37
2018-09-14T10:13:34.289Z,6.03
2018-09-14T10:15:38.855Z,6.73
2018-09-14T10:17:43.314Z,8.30
2018-09-14T10:19:47.859Z,7.72
2018-09-14T10:21:52.427Z,7.10
2018-09-14T10:23:56.800Z,6.47
2018-09-14T10:26:04.932Z,6.03
2018-09-14T10:28:09.451Z,5.40
2018-09-14T10:30:13.889Z,5.60
2018-09-14T10:32:18.541Z,5.33
2018-09-14T10:34:22.988Z,5.07
2018-09-14T10:36:27.532Z,4.33
2018-09-14T10:38:32.234Z,4.63
2018-09-14T10:40:42.737Z,5.40
2018-09-14T10:42:50.040Z,5.07
2018-09-14T10:45:00.392Z,4.37
2018-09-14T10:47:10.433Z,4.10
2018-09-14T10:49:19.097Z,4.13
2018-09-14T10:51:24.963Z,4.37
2018-09-14T10:53:33.907Z,4.87
2018-09-14T10:55:42.485Z,5.80
2018-09-14T10:57:49.831Z,5.08
2018-09-14T10:59:58.078Z,5.47
2018-09-14T11:02:08.312Z,5.67
2018-09-14T11:04:18.790Z,7.20
2018-09-14T11:06:25.765Z,7.03
2018-09-14T11:08:33.915Z,6.37
2018-09-14T11:10:42.525Z,6.13
2018-09-14T11:12:49.756Z,6.37
2018-09-14T11:14:54.299Z,6.73
2018-09-14T11:16:58.944Z,7.00
2018-09-14T11:19:03.989Z,6.90
2018-09-14T11:21:08.476Z,6.87
2018-09-14T11:23:12.931Z,6.03
2018-09-14T11:25:17.482Z,5.50
2018-09-14T11:27:23.176Z,5.87
2018-09-14T11:29:27.610Z,7.20
2018-09-14T11:31:32.037Z,6.55
2018-09-14T11:33:36.488Z,6.37
2018-09-14T11:35:41.017Z,8.45
2018-09-14T11:37:47.560Z,8.80
2018-09-14T11:39:52.911Z,7.30
2018-09-14T11:41:57.364Z,7.20
2018-09-14T11:44:01.810Z,7.63
2018-09-14T11:46:06.288Z,7.03
2018-09-14T11:48:19.566Z,7.78
2018-09-14T11:50:26.564Z,7.00
2018-09-14T11:52:37.320Z,6.50
2018-09-14T11:54:41.903Z,7.28
2018-09-14T11:56:49.668Z,8.03
2018-09-14T11:59:00.132Z,7.77
2018-09-14T12:01:08.176Z,7.93
2018-09-14T12:03:17.776Z,7.93
2018-09-14T12:05:26.620Z,8.23
2018-09-14T12:07:41.341Z,8.27
2018-09-14T12:09:50.645Z,8.70
2018-09-14T12:11:58.160Z,7.70
2018-09-14T12:14:07.792Z,8.97
2018-09-14T12:16:17.515Z,9.40
2018-09-14T12:18:27.643Z,9.77
2018-09-14T12:20:37.668Z,10.53
2018-09-14T12:22:45.232Z,10.90
2018-09-14T12:24:56.623Z,10.76
2018-09-14T12:27:05.797Z,9.53
2018-09-14T12:29:15.197Z,10.16
2018-09-14T12:31:19.791Z,9.47
2018-09-14T12:33:27.335Z,9.15
2018-09-14T12:35:33.925Z,8.60
2018-09-14T12:37:43.658Z,8.80
2018-09-14T12:39:54.161Z,9.18
2018-09-14T12:42:00.602Z,7.90
2018-09-14T12:44:11.648Z,7.72
2018-09-14T12:46:20.399Z,6.80
2018-09-14T12:48:28.134Z,6.80
2018-09-14T12:50:34.878Z,7.03
2018-09-14T12:52:44.755Z,6.22
2018-09-14T12:54:56.168Z,6.60
2018-09-14T12:57:04.762Z,6.47
2018-09-14T12:59:14.814Z,6.30
2018-09-14T13:01:20.701Z,7.73
2018-09-14T13:03:30.616Z,6.42
2018-09-14T13:05:37.478Z,6.17
2018-09-14T13:07:44.746Z,6.40
2018-09-14T13:09:54.862Z,6.75
2018-09-14T13:12:03.026Z,6.17
2018-09-14T13:14:12.446Z,7.12
2018-09-14T13:16:20.092Z,6.30
2018-09-14T13:18:28.140Z,6.35
2018-09-14T13:20:35.482Z,7.40
2018-09-14T13:22:43.590Z,6.10
2018-09-14T13:24:49.622Z,6.53
2018-09-14T13:27:01.234Z,5.33
2018-09-14T13:29:11.318Z,5.87
2018-09-14T13:31:22.507Z,5.78
2018-09-14T13:33:32.087Z,6.55
2018-09-14T13:35:42.347Z,6.47
2018-09-14T13:37:51.062Z,7.05
2018-09-14T13:40:00.910Z,6.97
2018-09-14T13:42:12.067Z,7.33
2018-09-14T13:44:19.890Z,7.67
2018-09-14T13:46:30.109Z,7.93
2018-09-14T13:48:34.703Z,7.53
2018-09-14T13:50:42.278Z,9.80
2018-09-14T13:52:52.622Z,8.70
2018-09-14T13:55:00.516Z,7.45
2018-09-14T13:57:10.147Z,7.77
2018-09-14T13:59:20.421Z,8.88
2018-09-14T14:01:30.775Z,7.70
2018-09-14T14:03:36.682Z,8.13
2018-09-14T14:05:43.227Z,7.80
2018-09-14T14:07:50.220Z,8.37
2018-09-14T14:09:56.463Z,9.45
2018-09-14T14:12:02.725Z,8.33
2018-09-14T14:14:12.330Z,8.00
2018-09-14T14:16:20.782Z,8.40
2018-09-14T14:18:29.483Z,7.90
2018-09-14T14:20:36.761Z,9.43
2018-09-14T14:22:45.277Z,9.15
2018-09-14T14:24:55.163Z,8.13
2018-09-14T14:27:05.049Z,7.85
2018-09-14T14:29:15.061Z,7.55
2018-09-14T14:31:20.589Z,7.65
2018-09-14T14:33:29.304Z,6.83
2018-09-14T14:35:36.942Z,7.13
2018-09-14T14:37:42.305Z,5.58
2018-09-14T14:39:48.444Z,5.87
2018-09-14T14:41:56.330Z,5.10
2018-09-14T14:44:02.918Z,5.90
2018-09-14T14:46:08.355Z,5.80
2018-09-14T14:48:15.518Z,5.77
2018-09-14T14:50:22.034Z,5.17
2018-09-14T14:52:29.333Z,5.45
2018-09-14T14:54:37.776Z,5.40
2018-09-14T14:56:43.595Z,5.20
2018-09-14T14:58:49.961Z,5.60
2018-09-14T15:00:56.638Z,5.00
2018-09-14T15:03:06.115Z,5.45
2018-09-14T15:05:12.431Z,5.12
2018-09-14T15:07:17.620Z,4.30
2018-09-14T15:09:24.321Z,4.97
2018-09-14T15:11:33.188Z,4.47
2018-09-14T15:13:39.734Z,3.92
2018-09-14T15:15:46.922Z,6.37
2018-09-14T15:17:53.141Z,5.70
2018-09-14T15:20:01.864Z,5.73
2018-09-14T15:22:08.859Z,4.78
2018-09-14T15:24:16.238Z,4.10
2018-09-14T15:26:24.904Z,4.40
2018-09-14T15:28:34.065Z,3.17
2018-09-14T15:30:40.721Z,3.25
2018-09-14T15:32:48.900Z,3.30
2018-09-14T15:34:57.450Z,3.47
2018-09-14T15:37:03.534Z,4.00
2018-09-14T15:39:13.226Z,3.83
2018-09-14T15:41:21.906Z,3.80
2018-09-14T15:43:30.766Z,6.10
2018-09-14T15:45:37.643Z,4.85
2018-09-14T15:47:45.587Z,5.17
2018-09-14T15:49:53.284Z,4.92
2018-09-14T15:52:04.248Z,5.10
2018-09-14T15:54:13.324Z,5.00
2018-09-14T15:56:24.231Z,4.08
2018-09-14T15:58:33.876Z,4.00
2018-09-14T16:00:43.886Z,3.75
2018-09-14T16:02:48.702Z,4.70
2018-09-14T16:04:57.846Z,4.30
2018-09-14T16:07:07.105Z,3.20
2018-09-14T16:09:16.148Z,2.57
2018-09-14T16:11:25.087Z,2.70
2018-09-14T16:13:31.172Z,2.33
2018-09-14T16:15:39.246Z,3.10
2018-09-14T16:17:45.738Z,2.47
2018-09-14T16:19:57.856Z,2.80
2018-09-14T16:22:06.485Z,2.87
2018-09-14T16:24:14.663Z,2.30
2018-09-14T16:26:24.081Z,2.50
2018-09-14T16:28:33.828Z,2.33
2018-09-14T16:30:42.425Z,2.50
2018-09-14T16:32:50.821Z,2.10
2018-09-14T16:34:59.779Z,2.10
2018-09-14T16:37:08.730Z,2.35
2018-09-14T16:39:16.585Z,2.13
2018-09-14T16:41:27.378Z,1.95
2018-09-14T16:43:38.010Z,2.33
2018-09-14T16:45:46.169Z,2.07
2018-09-14T16:47:54.369Z,2.10
2018-09-14T16:50:02.803Z,2.40
2018-09-14T16:52:11.146Z,2.40
2018-09-14T16:54:20.913Z,2.25
2018-09-14T16:56:31.342Z,2.05
2018-09-14T16:58:39.614Z,2.60
2018-09-14T17:00:48.641Z,2.33
2018-09-14T17:03:00.415Z,2.37
2018-09-14T17:05:10.183Z,2.10
2018-09-14T17:07:17.131Z,2.07
2018-09-14T17:09:26.170Z,2.30
2018-09-14T17:11:34.939Z,2.43
2018-09-14T17:13:43.327Z,2.27
2018-09-14T17:15:52.972Z,2.20
2018-09-14T17:17:58.508Z,2.40
2018-09-14T17:20:09.165Z,2.23
2018-09-14T17:22:18.331Z,2.57
2018-09-14T17:24:25.017Z,2.60
2018-09-14T17:26:34.945Z,2.20
2018-09-14T17:28:43.475Z,1.83
2018-09-14T17:30:50.474Z,2.03
2018-09-14T17:32:56.323Z,2.30
2018-09-14T17:35:03.555Z,1.93
2018-09-14T17:37:10.737Z,2.70
2018-09-14T17:39:20.553Z,2.10
2018-09-14T17:41:29.201Z,2.13
2018-09-14T17:43:36.579Z,2.13
2018-09-14T17:45:43.333Z,2.17
2018-09-14T17:47:53.427Z,2.25
2018-09-14T17:50:01.084Z,2.10
2018-09-14T17:52:10.766Z,2.62
2018-09-14T17:54:19.948Z,2.13
2018-09-14T17:56:27.109Z,2.17
2018-09-14T17:58:35.841Z,2.20
2018-09-14T18:00:46.501Z,2.10
2018-09-14T18:02:53.743Z,2.43
2018-09-14T18:05:01.851Z,1.95
2018-09-14T18:07:09.627Z,2.07
2018-09-14T18:09:19.338Z,1.93
2018-09-14T18:11:28.999Z,1.90
2018-09-14T18:13:37.323Z,2.05
2018-09-14T18:15:46.667Z,2.00
2018-09-14T18:17:54.268Z,1.90
2018-09-14T18:19:59.982Z,2.60
2018-09-14T18:22:09.039Z,2.02
2018-09-14T18:24:18.688Z,1.97
2018-09-14T18:26:26.587Z,2.00
2018-09-14T18:28:34.897Z,1.90
2018-09-14T18:30:41.622Z,1.90
2018-09-14T18:32:51.161Z,2.08
2018-09-14T18:35:00.961Z,1.63
2018-09-14T18:37:08.710Z,1.77
2018-09-14T18:39:17.923Z,1.83
2018-09-14T18:41:26.426Z,1.55
2018-09-14T18:43:35.032Z,1.90
2018-09-14T18:45:44.266Z,1.97
2018-09-14T18:47:49.284Z,1.47
2018-09-14T18:50:00.612Z,1.73
2018-09-14T18:52:08.280Z,1.80
2018-09-14T18:54:16.348Z,1.72
2018-09-14T18:56:25.079Z,1.57
2018-09-14T18:58:35.332Z,1.83
2018-09-14T19:00:43.649Z,1.60
2018-09-14T19:02:50.495Z,1.52
2018-09-14T19:04:58.537Z,1.43
2018-09-14T19:07:07.699Z,1.80
2018-09-14T19:09:17.339Z,1.83
2018-09-14T19:11:23.119Z,1.90
2018-09-14T19:13:32.590Z,1.42
2018-09-14T19:15:41.373Z,1.70
2018-09-14T19:17:55.627Z,1.67
2018-09-14T19:20:04.523Z,1.70
2018-09-14T19:22:15.301Z,1.80
2018-09-14T19:24:25.915Z,1.35
2018-09-14T19:26:35.610Z,1.67
2018-09-14T19:28:45.052Z,1.70
2018-09-14T19:30:54.388Z,1.70
2018-09-14T19:33:03.646Z,1.82
2018-09-14T19:35:11.506Z,2.20
2018-09-14T19:37:20.604Z,2.00
2018-09-14T19:39:30.442Z,1.50
2018-09-14T19:41:39.558Z,1.67
2018-09-14T19:43:47.094Z,2.03
2018-09-14T19:45:54.699Z,2.02
2018-09-14T19:48:02.165Z,1.82
2018-09-14T19:50:11.666Z,1.45
2018-09-14T19:52:19.512Z,1.67
2018-09-14T19:54:28.975Z,1.55
2018-09-14T19:56:38.760Z,1.90
2018-09-14T19:58:46.210Z,1.62
2018-09-14T20:00:55.905Z,1.87
2018-09-14T20:03:04.654Z,1.60
2018-09-14T20:05:09.311Z,1.85
2018-09-14T20:07:20.007Z,1.80
2018-09-14T20:09:30.923Z,1.55
2018-09-14T20:11:41.567Z,1.47
2018-09-14T20:13:51.965Z,1.70
2018-09-14T20:16:00.794Z,1.60
2018-09-14T20:18:08.899Z,1.50
2018-09-14T20:20:18.339Z,1.72
2018-09-14T20:22:26.479Z,1.60
2018-09-14T20:24:34.870Z,1.60
2018-09-14T20:26:41.822Z,2.17
2018-09-14T20:28:55.296Z,1.40
2018-09-14T20:31:01.511Z,1.42
2018-09-14T20:33:10.558Z,1.52
2018-09-14T20:35:19.278Z,1.60
2018-09-14T20:37:26.284Z,1.60
2018-09-14T20:39:33.982Z,1.90
2018-09-14T20:41:40.764Z,1.60
2018-09-14T20:43:50.343Z,1.73
2018-09-14T20:45:59.068Z,1.90
2018-09-14T20:48:09.008Z,1.60
2018-09-14T20:50:19.518Z,1.43
2018-09-14T20:52:28.560Z,1.80
2018-09-14T20:54:34.266Z,1.50
2018-09-14T20:56:41.575Z,1.47
2018-09-14T20:58:50.555Z,1.27
2018-09-14T21:01:01.046Z,1.60
2018-09-14T21:03:10.236Z,1.20
2018-09-14T21:05:16.521Z,1.73
2018-09-14T21:07:25.915Z,1.40
2018-09-14T21:09:36.271Z,1.70
2018-09-14T21:11:46.440Z,1.85
2018-09-14T21:13:56.559Z,1.60
2018-09-14T21:16:06.992Z,1.67
2018-09-14T21:18:15.147Z,1.50
2018-09-14T21:20:23.954Z,1.90
2018-09-14T21:22:35.160Z,1.60
2018-09-14T21:24:47.208Z,1.75
2018-09-14T21:26:57.796Z,1.62
2018-09-14T21:29:08.402Z,1.50
2018-09-14T21:31:16.774Z,1.60
2018-09-14T21:33:24.887Z,1.70
2018-09-14T21:35:36.316Z,1.50
2018-09-14T21:37:45.636Z,1.87
2018-09-14T21:39:53.770Z,1.55
2018-09-14T21:42:04.800Z,1.70
2018-09-14T21:44:11.958Z,1.50
2018-09-14T21:46:17.069Z,1.70
2018-09-14T21:48:21.676Z,1.60
2018-09-14T21:50:26.026Z,1.87
2018-09-14T21:52:30.543Z,1.57
2018-09-14T21:54:40.264Z,1.45
2018-09-14T21:56:47.338Z,1.67
2018-09-14T21:58:53.607Z,1.67
2018-09-14T22:01:03.546Z,1.37
2018-09-14T22:03:08.095Z,1.50
2018-09-14T22:05:13.024Z,1.73
2018-09-14T22:07:17.570Z,1.50
2018-09-14T22:09:21.999Z,1.70
2018-09-14T22:11:26.501Z,1.43
2018-09-14T22:13:31.130Z,1.52
2018-09-14T22:15:35.837Z,1.37
2018-09-14T22:17:42.262Z,1.55
2018-09-14T22:19:49.783Z,1.63
2018-09-14T22:21:57.804Z,1.30
2018-09-14T22:24:04.316Z,1.43
2018-09-14T22:26:15.772Z,1.57
2018-09-14T22:28:22.115Z,1.60
2018-09-14T22:30:32.447Z,1.70
2018-09-14T22:32:43.332Z,1.73
2018-09-14T22:34:51.837Z,1.37
2018-09-14T22:37:00.843Z,1.57
2018-09-14T22:39:12.853Z,1.33
2018-09-14T22:41:23.143Z,1.43
2018-09-14T22:43:31.525Z,1.50
2018-09-14T22:45:38.073Z,1.77
2018-09-14T22:47:49.365Z,1.67
2018-09-14T22:49:58.602Z,1.57
2018-09-14T22:52:05.955Z,2.05
2018-09-14T22:54:14.055Z,1.43
2018-09-14T22:56:24.106Z,1.70
2018-09-14T22:58:32.538Z,1.65
2018-09-14T23:00:43.455Z,1.50
2018-09-14T23:02:51.568Z,1.30
2018-09-14T23:04:58.022Z,1.60
2018-09-14T23:07:04.954Z,1.62
2018-09-14T23:09:12.795Z,1.60
2018-09-14T23:11:22.908Z,2.00
2018-09-14T23:13:29.537Z,1.80
2018-09-14T23:15:38.392Z,1.43
2018-09-14T23:17:45.051Z,1.40
2018-09-14T23:19:51.687Z,1.20
2018-09-14T23:21:59.347Z,1.87
2018-09-14T23:24:06.921Z,1.77
2018-09-14T23:26:15.454Z,1.90
2018-09-14T23:28:26.404Z,1.70
2018-09-14T23:30:33.252Z,1.60
2018-09-14T23:32:42.767Z,1.50
2018-09-14T23:34:49.685Z,1.50
2018-09-14T23:36:58.022Z,1.70
2018-09-14T23:39:09.441Z,1.35
2018-09-14T23:41:18.805Z,1.82
2018-09-14T23:43:28.095Z,1.20
2018-09-14T23:45:36.925Z,1.82
2018-09-14T23:47:42.214Z,1.50
2018-09-14T23:49:52.256Z,1.60
2018-09-14T23:51:58.705Z,1.80
2018-09-14T23:54:08.411Z,1.27
2018-09-14T23:56:15.364Z,1.62
2018-09-14T23:58:23.171Z,1.60
